createdAt,value
2022-07-29T00:04:50.589Z,4.13
2022-07-29T00:14:52.191Z,4.18
2022-07-29T00:24:53.737Z,3.75
2022-07-29T00:35:14.148Z,3.70
2022-07-29T00:45:15.504Z,4.57
2022-07-29T00:55:17.001Z,4.55
2022-07-29T01:05:18.393Z,4.53
2022-07-29T01:15:19.805Z,4.38
2022-07-29T01:25:21.168Z,3.85
2022-07-29T01:35:22.538Z,4.47
2022-07-29T01:45:24.021Z,4.30
2022-07-29T01:55:25.405Z,4.78
2022-07-29T02:05:26.779Z,4.47
2022-07-29T02:15:28.218Z,4.28
2022-07-29T02:25:37.239Z,4.00
2022-07-29T02:35:39.659Z,4.38
2022-07-29T02:45:41.008Z,4.35
2022-07-29T02:55:42.541Z,3.80
2022-07-29T03:05:43.879Z,3.95
2022-07-29T03:15:45.276Z,3.80
2022-07-29T03:25:46.689Z,3.60
2022-07-29T03:35:48.104Z,3.50
2022-07-29T03:45:49.469Z,4.43
2022-07-29T03:55:50.713Z,4.15
2022-07-29T04:05:52.088Z,3.60
2022-07-29T04:15:53.567Z,3.35
2022-07-29T04:25:54.956Z,3.00
2022-07-29T04:35:56.260Z,3.00
2022-07-29T04:45:57.663Z,3.20
2022-07-29T04:55:59.258Z,2.92
2022-07-29T05:06:00.600Z,2.75
2022-07-29T05:16:02.036Z,2.70
2022-07-29T05:26:03.418Z,3.10
2022-07-29T05:36:06.551Z,2.30
2022-07-29T05:46:08.148Z,2.38
2022-07-29T05:56:10.233Z,2.53
2022-07-29T06:06:11.571Z,2.30
2022-07-29T06:16:12.964Z,2.58
2022-07-29T06:26:17.251Z,3.15
2022-07-29T06:36:18.587Z,2.88
2022-07-29T06:46:20.639Z,3.17
2022-07-29T06:56:22.088Z,3.30
2022-07-29T07:06:23.416Z,3.67
2022-07-29T07:16:24.815Z,2.67
2022-07-29T07:26:26.368Z,3.30
2022-07-29T07:36:27.695Z,3.50
2022-07-29T07:46:29.064Z,3.85
2022-07-29T07:56:35.024Z,4.07
2022-07-29T08:06:37.863Z,3.72
2022-07-29T08:16:39.320Z,4.03
2022-07-29T08:26:40.685Z,3.17
2022-07-29T08:36:42.032Z,3.17
2022-07-29T08:46:43.383Z,3.35
2022-07-29T08:56:44.709Z,2.78
2022-07-29T09:06:46.435Z,2.85
2022-07-29T09:16:53.273Z,2.60
2022-07-29T09:26:55.559Z,2.58
2022-07-29T09:36:58.137Z,2.88
2022-07-29T09:46:59.917Z,2.92
2022-07-29T09:57:01.310Z,2.72
2022-07-29T10:07:04.996Z,3.55
2022-07-29T10:17:06.682Z,2.90
2022-07-29T10:27:08.053Z,3.00
2022-07-29T10:37:10.151Z,2.90
2022-07-29T10:47:11.503Z,2.83
2022-07-29T10:57:13.729Z,4.50
2022-07-29T11:07:17.465Z,2.97
2022-07-29T11:17:18.926Z,2.85
2022-07-29T11:27:23.114Z,3.07
2022-07-29T11:37:27.971Z,3.03
2022-07-29T11:47:30.210Z,2.83
2022-07-29T11:57:39.680Z,2.80
2022-07-29T12:07:46.017Z,2.50
2022-07-29T12:17:48.956Z,2.35
2022-07-29T12:27:50.360Z,2.10
2022-07-29T12:37:53.202Z,2.15
2022-07-29T12:47:57.148Z,2.35
2022-07-29T12:57:58.634Z,2.15
2022-07-29T13:07:59.884Z,1.80
2022-07-29T13:18:01.954Z,1.55
2022-07-29T13:28:03.311Z,1.75
2022-07-29T13:38:04.653Z,1.75
2022-07-29T13:48:07.247Z,1.95
2022-07-29T13:58:08.594Z,1.67
2022-07-29T14:08:10.026Z,2.30
2022-07-29T14:18:11.339Z,2.08
2022-07-29T14:28:12.753Z,1.90
2022-07-29T14:38:16.140Z,2.10
2022-07-29T14:48:17.499Z,1.42
2022-07-29T14:58:19.216Z,1.60
2022-07-29T15:08:20.533Z,1.33
2022-07-29T15:18:25.592Z,1.83
2022-07-29T15:28:27.277Z,1.70
2022-07-29T15:38:29.124Z,1.40
2022-07-29T15:48:30.575Z,1.30
2022-07-29T15:58:31.965Z,1.20
2022-07-29T16:08:33.296Z,1.30
2022-07-29T16:18:34.904Z,1.17
2022-07-29T16:28:36.277Z,1.35
2022-07-29T16:38:38.216Z,1.35
2022-07-29T16:48:48.830Z,1.15
2022-07-29T16:58:50.127Z,1.20
2022-07-29T17:08:51.482Z,1.20
2022-07-29T17:18:52.904Z,1.38
2022-07-29T17:28:54.174Z,1.50
2022-07-29T17:38:55.547Z,1.25
2022-07-29T17:48:56.944Z,1.38
2022-07-29T17:59:01.454Z,1.42
2022-07-29T18:09:02.781Z,1.20
2022-07-29T18:19:04.126Z,1.27
2022-07-29T18:29:05.461Z,1.50
2022-07-29T18:39:10.600Z,1.73
2022-07-29T18:49:16.829Z,1.50
2022-07-29T18:59:20.216Z,1.80
2022-07-29T19:19:22.901Z,2.05
2022-07-29T19:29:25.385Z,1.90
2022-07-29T19:39:35.267Z,1.63
2022-07-29T19:49:39.394Z,1.83
2022-07-29T19:59:40.767Z,1.98
2022-07-29T20:09:42.177Z,2.20
2022-07-29T20:19:43.653Z,2.03
2022-07-29T20:29:45.047Z,2.10
2022-07-29T20:39:49.568Z,2.30
2022-07-29T20:49:50.904Z,3.47
2022-07-29T20:59:52.273Z,3.05
2022-07-29T21:09:53.601Z,3.30
2022-07-29T21:19:55.414Z,3.25
2022-07-29T21:29:56.697Z,3.42
2022-07-29T21:40:01.625Z,2.80
2022-07-29T21:50:03.111Z,3.55
2022-07-29T22:00:04.441Z,3.58
2022-07-29T22:10:05.791Z,3.20
2022-07-29T22:20:07.143Z,3.33
2022-07-29T22:30:08.566Z,3.33
2022-07-29T22:40:12.015Z,3.92
2022-07-29T22:50:14.726Z,3.67
2022-07-29T23:00:16.183Z,3.85
2022-07-29T23:10:17.571Z,3.60
2022-07-29T23:20:22.554Z,3.47
2022-07-29T23:30:23.976Z,3.72
2022-07-29T23:40:26.639Z,3.85
2022-07-29T23:50:28.993Z,3.92
